createdAt,value
2022-09-24T00:02:21.321Z,9.37
2022-09-24T00:04:49.666Z,7.73
2022-09-24T00:07:17.903Z,10.37
2022-09-24T00:09:48.335Z,6.53
2022-09-24T00:12:17.166Z,6.23
2022-09-24T00:14:45.737Z,6.47
2022-09-24T00:17:13.951Z,6.53
2022-09-24T00:19:44.447Z,6.97
2022-09-24T00:22:12.740Z,8.70
2022-09-24T00:24:58.587Z,7.47
2022-09-24T00:27:29.060Z,6.23
2022-09-24T00:29:57.791Z,8.90
2022-09-24T00:32:26.021Z,9.93
2022-09-24T00:34:54.383Z,8.07
2022-09-24T00:37:22.664Z,7.50
2022-09-24T00:39:50.962Z,8.63
2022-09-24T00:42:20.798Z,10.50
2022-09-24T00:44:57.756Z,8.80
2022-09-24T00:47:41.886Z,9.53
2022-09-24T00:50:18.377Z,9.43
2022-09-24T00:52:53.138Z,6.43
2022-09-24T00:55:23.791Z,12.50
2022-09-24T00:57:58.188Z,9.00
2022-09-24T01:00:28.415Z,8.17
2022-09-24T01:03:02.983Z,9.20
2022-09-24T01:05:31.966Z,9.50
2022-09-24T01:08:00.242Z,8.20
2022-09-24T01:10:51.760Z,10.80
2022-09-24T01:13:43.737Z,7.40
2022-09-24T01:16:22.911Z,10.53
2022-09-24T01:19:00.815Z,8.70
2022-09-24T01:21:39.713Z,8.87
2022-09-24T01:24:53.110Z,6.63
2022-09-24T01:27:31.895Z,9.33
2022-09-24T01:30:06.616Z,9.67
2022-09-24T01:32:39.961Z,7.83
2022-09-24T01:35:18.192Z,9.50
2022-09-24T01:37:53.051Z,11.83
2022-09-24T01:40:27.077Z,10.20
2022-09-24T01:42:58.839Z,9.30
2022-09-24T01:45:32.156Z,8.93
2022-09-24T01:48:01.891Z,10.47
2022-09-24T01:50:36.167Z,10.60
2022-09-24T01:53:11.461Z,9.00
2022-09-24T01:55:49.689Z,10.40
2022-09-24T01:58:27.926Z,9.77
2022-09-24T02:01:06.320Z,12.30
2022-09-24T02:03:41.500Z,10.20
2022-09-24T02:06:16.145Z,13.33
2022-09-24T02:08:48.504Z,7.70
2022-09-24T02:11:20.214Z,9.80
2022-09-24T02:13:56.455Z,9.10
2022-09-24T02:16:31.923Z,10.00
2022-09-24T02:19:06.932Z,10.33
2022-09-24T02:21:40.702Z,11.70
2022-09-24T02:24:15.903Z,9.57
2022-09-24T02:26:44.996Z,12.37
2022-09-24T02:29:14.214Z,11.60
2022-09-24T02:31:48.955Z,10.03
2022-09-24T02:34:23.661Z,10.97
2022-09-24T02:36:56.097Z,9.33
2022-09-24T02:39:24.383Z,10.33
2022-09-24T02:41:54.764Z,12.70
2022-09-24T02:44:24.358Z,9.70
2022-09-24T02:46:54.076Z,9.83
2022-09-24T02:49:22.445Z,9.03
2022-09-24T02:51:50.784Z,8.33
2022-09-24T02:54:19.224Z,9.87
2022-09-24T02:56:47.840Z,9.60
2022-09-24T02:59:16.473Z,9.40
2022-09-24T03:01:44.936Z,7.80
2022-09-24T03:04:17.029Z,9.03
2022-09-24T03:06:45.510Z,8.43
2022-09-24T03:09:14.213Z,8.70
2022-09-24T03:11:42.578Z,9.83
2022-09-24T03:14:10.993Z,8.33
2022-09-24T03:16:39.265Z,10.60
2022-09-24T03:19:08.195Z,8.93
2022-09-24T03:21:37.935Z,9.87
2022-09-24T03:24:06.735Z,10.87
2022-09-24T03:26:35.018Z,8.73
2022-09-24T03:29:05.387Z,13.20
2022-09-24T03:31:32.681Z,9.93
2022-09-24T03:34:01.064Z,11.53
2022-09-24T03:36:29.280Z,9.80
2022-09-24T03:38:59.276Z,9.73
2022-09-24T03:41:28.822Z,9.23
2022-09-24T03:43:57.550Z,10.60
2022-09-24T03:46:30.185Z,8.63
2022-09-24T03:49:00.726Z,9.33
2022-09-24T03:51:29.610Z,9.67
2022-09-24T03:53:59.241Z,9.50
2022-09-24T03:56:27.515Z,10.63
2022-09-24T03:58:56.181Z,10.77
2022-09-24T04:01:24.626Z,11.77
2022-09-24T04:03:54.145Z,10.57
2022-09-24T04:06:25.985Z,10.00
2022-09-24T04:08:55.717Z,10.67
2022-09-24T04:11:25.882Z,9.03
2022-09-24T04:13:54.535Z,9.90
2022-09-24T04:16:23.661Z,11.77
2022-09-24T04:18:52.153Z,11.97
2022-09-24T04:21:21.415Z,8.37
2022-09-24T04:23:49.668Z,11.47
2022-09-24T04:26:18.353Z,10.57
2022-09-24T04:28:49.829Z,11.53
2022-09-24T04:31:18.144Z,10.13
2022-09-24T04:33:46.946Z,10.20
2022-09-24T04:36:15.332Z,10.47
2022-09-24T04:38:43.911Z,10.20
2022-09-24T04:41:12.518Z,10.33
2022-09-24T04:43:40.911Z,11.83
2022-09-24T04:46:11.039Z,13.13
2022-09-24T04:48:40.135Z,14.43
2022-09-24T04:51:10.469Z,10.43
2022-09-24T04:53:39.168Z,11.23
2022-09-24T04:56:11.292Z,13.00
2022-09-24T04:58:40.263Z,11.37
2022-09-24T05:01:10.737Z,11.13
2022-09-24T05:03:39.631Z,14.07
2022-09-24T05:06:08.053Z,14.13
2022-09-24T05:08:36.355Z,13.67
2022-09-24T05:11:04.633Z,12.33
2022-09-24T05:13:32.930Z,12.80
2022-09-24T05:16:02.112Z,11.30
2022-09-24T05:18:31.828Z,13.23
2022-09-24T05:21:00.495Z,12.53
2022-09-24T05:23:28.806Z,12.17
2022-09-24T05:26:14.355Z,13.20
2022-09-24T05:28:42.872Z,12.43
2022-09-24T05:31:11.755Z,14.67
2022-09-24T05:33:41.415Z,12.63
2022-09-24T05:36:09.748Z,13.50
2022-09-24T05:38:41.543Z,13.63
2022-09-24T05:41:10.830Z,11.27
2022-09-24T05:43:39.208Z,13.03
2022-09-24T05:46:08.112Z,11.57
2022-09-24T05:48:36.469Z,13.57
2022-09-24T05:51:07.004Z,11.63
2022-09-24T05:53:35.585Z,12.43
2022-09-24T05:56:03.927Z,11.13
2022-09-24T05:58:32.690Z,11.77
2022-09-24T06:01:01.729Z,12.60
2022-09-24T06:03:31.791Z,11.57
2022-09-24T06:06:02.140Z,10.50
2022-09-24T06:08:33.472Z,14.03
2022-09-24T06:11:03.549Z,12.63
2022-09-24T06:13:33.645Z,13.17
2022-09-24T06:16:03.096Z,11.57
2022-09-24T06:18:31.625Z,11.77
2022-09-24T06:21:03.894Z,11.20
2022-09-24T06:23:33.725Z,11.63
2022-09-24T06:26:02.781Z,14.57
2022-09-24T06:28:31.149Z,11.57
2022-09-24T06:31:01.885Z,14.33
2022-09-24T06:33:30.799Z,12.47
2022-09-24T06:36:03.028Z,14.83
2022-09-24T06:38:33.285Z,11.23
2022-09-24T06:41:05.140Z,10.43
2022-09-24T06:43:34.532Z,10.57
2022-09-24T06:46:04.957Z,11.27
2022-09-24T06:48:33.923Z,12.43
2022-09-24T06:51:02.269Z,11.00
2022-09-24T06:53:30.808Z,11.13
2022-09-24T06:56:00.667Z,11.23
2022-09-24T06:58:29.181Z,12.53
2022-09-24T07:01:01.699Z,12.97
2022-09-24T07:03:34.969Z,12.93
2022-09-24T07:06:06.114Z,10.43
2022-09-24T07:08:35.708Z,11.53
2022-09-24T07:11:05.691Z,12.50
2022-09-24T07:13:34.018Z,11.97
2022-09-24T07:16:03.180Z,13.10
2022-09-24T07:18:31.524Z,16.15
2022-09-24T07:20:59.872Z,10.70
2022-09-24T07:23:28.143Z,11.60
2022-09-24T07:25:58.312Z,12.07
2022-09-24T07:28:27.937Z,10.82
2022-09-24T07:31:00.901Z,11.70
2022-09-24T07:33:32.021Z,12.57
2022-09-24T07:36:00.362Z,13.33
2022-09-24T07:38:28.643Z,12.65
2022-09-24T07:40:59.497Z,12.52
2022-09-24T07:43:29.475Z,12.30
2022-09-24T07:45:58.269Z,14.13
2022-09-24T07:48:26.846Z,15.32
2022-09-24T07:50:55.944Z,11.63
2022-09-24T07:53:24.677Z,12.40
2022-09-24T07:55:52.964Z,14.23
2022-09-24T07:58:21.887Z,13.63
2022-09-24T08:00:51.599Z,14.30
2022-09-24T08:03:20.546Z,10.95
2022-09-24T08:05:49.288Z,12.65
2022-09-24T08:08:17.578Z,11.77
2022-09-24T08:10:46.185Z,16.40
2022-09-24T08:13:14.538Z,12.90
2022-09-24T08:15:43.147Z,12.73
2022-09-24T08:18:12.955Z,11.73
2022-09-24T08:20:41.223Z,13.90
2022-09-24T08:23:11.254Z,15.77
2022-09-24T08:25:39.696Z,13.90
2022-09-24T08:28:11.278Z,15.48
2022-09-24T08:30:40.975Z,15.48
2022-09-24T08:33:09.234Z,13.73
2022-09-24T08:35:40.732Z,16.10
2022-09-24T08:38:10.056Z,12.45
2022-09-24T08:40:45.786Z,11.15
2022-09-24T08:43:44.462Z,13.77
2022-09-24T08:46:38.659Z,13.45
2022-09-24T08:49:12.560Z,11.13
2022-09-24T08:51:58.944Z,14.07
2022-09-24T08:54:31.987Z,19.05
2022-09-24T08:57:06.841Z,15.00
2022-09-24T08:59:37.728Z,13.55
2022-09-24T09:02:32.179Z,16.00
2022-09-24T09:05:14.160Z,18.00
2022-09-24T09:07:55.666Z,17.33
2022-09-24T09:10:29.234Z,16.17
2022-09-24T09:13:06.241Z,16.40
2022-09-24T09:15:41.646Z,16.08
2022-09-24T09:18:19.705Z,13.57
2022-09-24T09:20:50.933Z,17.50
2022-09-24T09:23:22.790Z,13.38
2022-09-24T09:25:57.204Z,15.00
2022-09-24T09:28:28.507Z,12.48
2022-09-24T09:31:11.607Z,15.10
2022-09-24T09:34:03.789Z,15.32
2022-09-24T09:36:54.317Z,13.57
2022-09-24T09:39:44.220Z,25.17
2022-09-24T09:42:33.062Z,14.02
2022-09-24T09:45:03.428Z,14.52
2022-09-24T09:47:44.350Z,14.02
2022-09-24T09:50:27.939Z,15.65
2022-09-24T09:52:56.971Z,15.95
2022-09-24T09:55:31.231Z,13.05
2022-09-24T09:58:17.621Z,17.33
2022-09-24T10:00:48.358Z,17.88
2022-09-24T10:03:27.070Z,16.63
2022-09-24T10:06:01.693Z,21.48
2022-09-24T10:08:30.778Z,18.60
2022-09-24T10:11:03.471Z,18.35
2022-09-24T10:13:32.598Z,19.27
2022-09-24T10:16:05.141Z,18.55
2022-09-24T10:18:47.609Z,21.90
2022-09-24T10:21:32.455Z,23.92
2022-09-24T10:24:04.254Z,26.65
2022-09-24T10:26:44.548Z,22.30
2022-09-24T10:29:37.200Z,24.98
2022-09-24T10:32:14.506Z,24.02
2022-09-24T10:34:43.088Z,22.58
2022-09-24T10:37:18.939Z,22.85
2022-09-24T10:39:57.606Z,30.02
2022-09-24T10:42:29.971Z,24.60
2022-09-24T10:45:03.549Z,24.40
2022-09-24T10:47:42.322Z,23.42
2022-09-24T10:50:32.514Z,24.23
2022-09-24T10:53:08.982Z,26.60
2022-09-24T10:55:47.348Z,26.08
2022-09-24T10:58:44.313Z,26.35
2022-09-24T11:01:20.381Z,26.95
2022-09-24T11:04:09.488Z,23.02
2022-09-24T11:06:55.518Z,30.05
2022-09-24T11:09:36.286Z,23.13
2022-09-24T11:12:20.574Z,29.38
2022-09-24T11:15:11.937Z,24.60
2022-09-24T11:17:55.084Z,29.23
2022-09-24T11:20:34.836Z,28.63
2022-09-24T11:23:32.275Z,31.38
2022-09-24T11:26:15.862Z,31.85
2022-09-24T11:29:12.342Z,28.95
2022-09-24T11:31:49.837Z,28.75
2022-09-24T11:34:47.110Z,30.05
2022-09-24T11:37:36.127Z,26.08
2022-09-24T11:40:24.797Z,27.75
2022-09-24T11:43:13.480Z,29.00
2022-09-24T11:45:59.065Z,26.58
2022-09-24T11:48:55.583Z,31.30
2022-09-24T11:51:37.967Z,28.80
2022-09-24T11:54:20.587Z,25.83
2022-09-24T11:56:57.557Z,35.70
2022-09-24T11:59:43.164Z,31.83
2022-09-24T12:02:21.401Z,24.75
2022-09-24T12:05:01.219Z,27.40
2022-09-24T12:07:37.849Z,25.48
2022-09-24T12:10:26.074Z,27.63
2022-09-24T12:13:02.621Z,27.63
2022-09-24T12:15:44.118Z,27.60
2022-09-24T12:18:20.070Z,28.20
2022-09-24T12:20:54.184Z,28.02
2022-09-24T12:23:29.846Z,27.90
2022-09-24T12:26:01.873Z,27.20
2022-09-24T12:29:00.717Z,30.52
2022-09-24T12:31:57.145Z,30.45
2022-09-24T12:34:38.411Z,31.88
2022-09-24T12:37:14.150Z,32.67
2022-09-24T12:39:53.779Z,36.53
2022-09-24T12:42:24.500Z,35.67
2022-09-24T12:44:59.491Z,33.50
2022-09-24T12:47:33.232Z,32.42
2022-09-24T12:50:06.314Z,33.33
2022-09-24T12:52:42.405Z,38.78
2022-09-24T12:55:23.204Z,36.35
2022-09-24T12:57:56.121Z,41.53
2022-09-24T13:00:43.873Z,37.10
2022-09-24T13:03:34.276Z,37.75
2022-09-24T13:06:03.334Z,40.17
2022-09-24T13:08:41.277Z,39.40
2022-09-24T13:11:30.506Z,38.10
2022-09-24T13:14:21.655Z,33.30
2022-09-24T13:16:53.334Z,35.35
2022-09-24T13:19:35.125Z,35.53
2022-09-24T13:22:04.544Z,38.08
2022-09-24T13:24:47.877Z,39.63
2022-09-24T13:27:25.227Z,36.22
2022-09-24T13:30:17.646Z,35.25
2022-09-24T13:32:55.632Z,37.63
2022-09-24T13:35:29.202Z,34.25
2022-09-24T13:38:08.893Z,32.95
2022-09-24T13:40:44.462Z,36.08
2022-09-24T13:43:19.081Z,34.08
2022-09-24T13:45:49.314Z,30.58
2022-09-24T13:48:31.398Z,35.08
2022-09-24T13:51:02.171Z,34.65
2022-09-24T13:53:38.628Z,35.35
2022-09-24T13:56:15.808Z,36.25
2022-09-24T13:58:44.295Z,36.58
2022-09-24T14:01:18.441Z,44.08
2022-09-24T14:03:55.578Z,37.75
2022-09-24T14:06:35.646Z,40.55
2022-09-24T14:09:15.241Z,37.28
2022-09-24T14:11:52.298Z,39.35
2022-09-24T14:14:24.731Z,37.28
2022-09-24T14:16:55.066Z,47.35
2022-09-24T14:19:24.261Z,37.90
2022-09-24T14:21:57.726Z,36.55
2022-09-24T14:24:31.961Z,40.45
2022-09-24T14:27:06.805Z,35.10
2022-09-24T14:29:48.416Z,31.83
2022-09-24T14:32:25.845Z,33.17
2022-09-24T14:34:56.743Z,34.15
2022-09-24T14:37:31.294Z,36.10
2022-09-24T14:40:05.572Z,41.92
2022-09-24T14:42:43.946Z,39.80
2022-09-24T14:45:21.586Z,37.08
2022-09-24T14:48:00.436Z,41.67
2022-09-24T14:50:38.027Z,39.72
2022-09-24T14:53:21.381Z,39.78
2022-09-24T14:55:50.747Z,40.75
2022-09-24T14:58:37.351Z,72.18
2022-09-24T15:01:15.940Z,42.67
2022-09-24T15:03:49.932Z,42.28
2022-09-24T15:06:25.794Z,39.38
2022-09-24T15:09:00.883Z,42.80
2022-09-24T15:11:34.211Z,38.28
2022-09-24T15:14:15.688Z,37.50
2022-09-24T15:16:47.035Z,36.40
2022-09-24T15:19:20.202Z,35.35
2022-09-24T15:21:49.811Z,35.22
2022-09-24T15:24:19.896Z,45.20
2022-09-24T15:26:59.940Z,41.50
2022-09-24T15:29:29.750Z,43.85
2022-09-24T15:32:00.275Z,37.55
2022-09-24T15:34:29.495Z,37.83
2022-09-24T15:37:00.570Z,38.78
2022-09-24T15:39:31.935Z,37.83
2022-09-24T15:42:00.164Z,39.92
2022-09-24T15:44:33.889Z,41.30
2022-09-24T15:47:02.623Z,41.88
2022-09-24T15:49:31.415Z,46.15
2022-09-24T15:52:06.958Z,38.20
2022-09-24T15:54:35.732Z,40.97
2022-09-24T15:57:04.409Z,39.95
2022-09-24T15:59:34.221Z,40.38
2022-09-24T16:02:12.597Z,38.85
2022-09-24T16:04:40.870Z,38.67
2022-09-24T16:07:09.266Z,37.65
2022-09-24T16:09:37.727Z,37.67
2022-09-24T16:12:06.666Z,37.65
2022-09-24T16:14:36.550Z,38.28
2022-09-24T16:17:04.981Z,37.47
2022-09-24T16:19:33.735Z,41.55
2022-09-24T16:22:02.201Z,41.10
2022-09-24T16:24:34.352Z,40.47
2022-09-24T16:27:03.163Z,43.03
2022-09-24T16:29:31.826Z,39.83
2022-09-24T16:32:02.216Z,37.58
2022-09-24T16:34:31.263Z,39.03
2022-09-24T16:36:59.771Z,40.67
2022-09-24T16:39:28.211Z,41.22
2022-09-24T16:41:56.942Z,38.30
2022-09-24T16:44:25.276Z,39.35
2022-09-24T16:46:54.009Z,38.03
2022-09-24T16:49:25.371Z,38.28
2022-09-24T16:51:53.787Z,40.25
2022-09-24T16:54:22.735Z,42.67
2022-09-24T16:56:52.191Z,45.25
2022-09-24T16:59:20.937Z,49.80
2022-09-24T17:01:49.632Z,50.65
2022-09-24T17:04:18.141Z,52.30
2022-09-24T17:06:47.973Z,55.90
2022-09-24T17:09:33.987Z,65.70
2022-09-24T17:12:03.634Z,73.10
2022-09-24T17:14:32.122Z,69.95
2022-09-24T17:17:00.757Z,67.32
2022-09-24T17:19:29.448Z,72.65
2022-09-24T17:21:59.294Z,74.03
2022-09-24T17:24:27.790Z,69.35
2022-09-24T17:26:56.614Z,66.63
2022-09-24T17:29:30.353Z,63.00
2022-09-24T17:31:59.639Z,62.28
2022-09-24T17:34:28.699Z,56.60
2022-09-24T17:36:59.793Z,53.20
2022-09-24T17:39:30.722Z,52.30
2022-09-24T17:41:59.171Z,54.28
2022-09-24T17:44:27.605Z,50.22
2022-09-24T17:46:56.464Z,54.60
2022-09-24T17:49:24.945Z,60.25
2022-09-24T17:51:53.353Z,58.40
2022-09-24T17:54:24.268Z,56.08
2022-09-24T17:56:53.825Z,56.25
2022-09-24T17:59:26.482Z,52.53
2022-09-24T18:01:55.832Z,48.28
2022-09-24T18:04:25.823Z,45.33
2022-09-24T18:06:54.314Z,45.88
2022-09-24T18:09:24.128Z,43.35
2022-09-24T18:11:54.097Z,40.28
2022-09-24T18:14:23.993Z,48.97
2022-09-24T18:16:53.376Z,48.95
2022-09-24T18:19:23.130Z,48.40
2022-09-24T18:21:51.473Z,42.47
2022-09-24T18:24:20.055Z,43.95
2022-09-24T18:26:51.857Z,44.35
2022-09-24T18:29:21.277Z,45.70
2022-09-24T18:31:51.462Z,40.83
2022-09-24T18:34:20.058Z,37.17
2022-09-24T18:36:50.651Z,37.65
2022-09-24T18:39:24.815Z,33.47
2022-09-24T18:41:55.355Z,33.20
2022-09-24T18:44:23.866Z,32.85
2022-09-24T18:46:52.656Z,36.63
2022-09-24T18:49:21.293Z,27.13
2022-09-24T18:51:52.723Z,30.77
2022-09-24T18:54:21.413Z,29.70
2022-09-24T18:56:49.902Z,29.42
2022-09-24T18:59:21.746Z,28.75
2022-09-24T19:01:51.702Z,26.83
2022-09-24T19:04:20.627Z,31.08
2022-09-24T19:06:50.706Z,24.02
2022-09-24T19:09:21.315Z,25.52
2022-09-24T19:11:50.762Z,28.73
2022-09-24T19:14:21.514Z,27.70
2022-09-24T19:16:50.077Z,28.48
2022-09-24T19:19:18.770Z,27.17
2022-09-24T19:21:47.365Z,25.27
2022-09-24T19:24:15.864Z,26.30
2022-09-24T19:26:44.870Z,25.42
2022-09-24T19:29:13.498Z,21.40
2022-09-24T19:31:45.552Z,24.25
2022-09-24T19:34:15.309Z,22.98
2022-09-24T19:36:44.971Z,22.65
2022-09-24T19:39:16.294Z,24.05
2022-09-24T19:41:45.158Z,20.85
2022-09-24T19:44:14.791Z,21.60
2022-09-24T19:46:45.312Z,20.13
2022-09-24T19:49:13.797Z,17.80
2022-09-24T19:51:42.549Z,18.73
2022-09-24T19:54:12.113Z,16.60
2022-09-24T19:56:41.479Z,20.83
2022-09-24T19:59:10.999Z,19.15
2022-09-24T20:01:39.395Z,21.60
2022-09-24T20:04:09.600Z,24.88
2022-09-24T20:06:39.423Z,24.92
2022-09-24T20:09:08.517Z,23.83
2022-09-24T20:11:37.138Z,23.02
2022-09-24T20:14:08.907Z,21.52
2022-09-24T20:16:38.081Z,21.58
2022-09-24T20:19:08.353Z,27.55
2022-09-24T20:21:36.921Z,25.58
2022-09-24T20:24:07.657Z,22.80
2022-09-24T20:26:53.827Z,27.13
2022-09-24T20:29:23.638Z,24.30
2022-09-24T20:31:55.645Z,24.02
2022-09-24T20:34:33.701Z,23.65
2022-09-24T20:37:02.661Z,26.80
2022-09-24T20:39:33.829Z,29.02
2022-09-24T20:42:03.614Z,34.95
2022-09-24T20:44:32.366Z,29.90
2022-09-24T20:47:01.119Z,26.98
2022-09-24T20:49:31.164Z,30.42
2022-09-24T20:52:01.361Z,30.70
2022-09-24T20:54:30.166Z,32.58
2022-09-24T20:56:58.884Z,33.97
2022-09-24T20:59:27.591Z,35.08
2022-09-24T21:01:56.300Z,37.83
2022-09-24T21:04:25.541Z,40.72
2022-09-24T21:06:55.711Z,42.33
2022-09-24T21:09:24.119Z,44.70
2022-09-24T21:11:53.168Z,44.58
2022-09-24T21:14:22.609Z,46.78
2022-09-24T21:16:50.802Z,42.30
2022-09-24T21:19:19.226Z,42.22
2022-09-24T21:21:47.677Z,43.03
2022-09-24T21:24:17.444Z,42.47
2022-09-24T21:26:45.954Z,43.70
2022-09-24T21:29:17.387Z,47.72
2022-09-24T21:31:47.834Z,43.17
2022-09-24T21:34:18.032Z,51.97
2022-09-24T21:36:46.619Z,46.50
2022-09-24T21:39:19.345Z,50.03
2022-09-24T21:41:50.181Z,48.47
2022-09-24T21:44:19.474Z,42.13
2022-09-24T21:46:52.547Z,46.13
2022-09-24T21:49:21.326Z,44.67
2022-09-24T21:51:50.668Z,48.63
2022-09-24T21:54:20.577Z,52.13
2022-09-24T21:56:49.240Z,60.28
2022-09-24T21:59:36.398Z,60.63
2022-09-24T22:02:05.880Z,61.58
2022-09-24T22:04:35.265Z,60.15
2022-09-24T22:07:03.885Z,68.18
2022-09-24T22:09:33.745Z,68.10
2022-09-24T22:12:04.551Z,70.70
2022-09-24T22:14:34.605Z,73.80
2022-09-24T22:17:03.830Z,66.72
2022-09-24T22:19:32.354Z,111.97
2022-09-24T22:22:00.914Z,69.82
2022-09-24T22:24:29.417Z,97.00
2022-09-24T22:26:59.050Z,86.20
2022-09-24T22:29:27.329Z,66.97
2022-09-24T22:31:55.576Z,143.82
2022-09-24T22:34:41.574Z,114.20
2022-09-24T22:37:09.853Z,79.35
2022-09-24T22:39:38.191Z,73.63
2022-09-24T22:42:07.906Z,66.93
2022-09-24T22:44:36.597Z,98.03
2022-09-24T22:47:04.870Z,68.07
2022-09-24T22:49:33.182Z,60.70
2022-09-24T22:52:01.815Z,56.88
2022-09-24T22:54:30.500Z,55.15
2022-09-24T22:56:59.107Z,76.03
2022-09-24T22:59:28.712Z,68.95
2022-09-24T23:01:56.927Z,60.80
2022-09-24T23:04:25.177Z,66.03
2022-09-24T23:06:53.454Z,63.95
2022-09-24T23:09:21.724Z,73.88
2022-09-24T23:11:50.034Z,70.88
2022-09-24T23:14:18.629Z,59.53
2022-09-24T23:16:48.245Z,67.38
2022-09-24T23:19:19.187Z,55.63
2022-09-24T23:21:48.280Z,67.30
2022-09-24T23:24:19.709Z,55.30
2022-09-24T23:26:51.023Z,44.33
2022-09-24T23:29:19.308Z,46.35
2022-09-24T23:31:48.881Z,40.95
2022-09-24T23:34:17.086Z,44.95
2022-09-24T23:36:46.181Z,40.03
2022-09-24T23:39:14.594Z,37.67
2022-09-24T23:41:42.881Z,37.20
2022-09-24T23:44:11.388Z,45.80
2022-09-24T23:46:40.030Z,46.33
2022-09-24T23:49:09.696Z,39.85
2022-09-24T23:51:38.252Z,42.50
2022-09-24T23:54:07.846Z,49.72
2022-09-24T23:56:36.222Z,55.88
2022-09-24T23:59:05.480Z,51.10
